sensor_id;sensor_type;location;lat;lon;timestamp;P1;durP1;ratioP1;P2;durP2;ratioP2
51467;SDS011;37545;45.302;-122.946;2024-02-14T00:00:49;8.57;;;4.35;;
51467;SDS011;37545;45.302;-122.946;2024-02-14T00:03:18;9.50;;;4.45;;
51467;SDS011;37545;45.302;-122.946;2024-02-14T00:05:49;12.77;;;4.25;;
51467;SDS011;37545;45.302;-122.946;2024-02-14T00:08:18;8.10;;;3.67;;
51467;SDS011;37545;45.302;-122.946;2024-02-14T00:10:47;7.13;;;4.47;;
51467;SDS011;37545;45.302;-122.946;2024-02-14T00:13:17;11.57;;;4.32;;
51467;SDS011;37545;45.302;-122.946;2024-02-14T00:15:46;16.73;;;5.13;;
51467;SDS011;37545;45.302;-122.946;2024-02-14T00:18:16;16.38;;;4.93;;
51467;SDS011;37545;45.302;-122.946;2024-02-14T00:20:46;9.75;;;4.20;;
51467;SDS011;37545;45.302;-122.946;2024-02-14T00:23:16;8.43;;;3.88;;
51467;SDS011;37545;45.302;-122.946;2024-02-14T00:25:57;8.13;;;4.50;;
51467;SDS011;37545;45.302;-122.946;2024-02-14T00:28:28;7.10;;;4.32;;
51467;SDS011;37545;45.302;-122.946;2024-02-14T00:30:57;7.05;;;4.32;;
51467;SDS011;37545;45.302;-122.946;2024-02-14T00:33:40;8.82;;;5.15;;
51467;SDS011;37545;45.302;-122.946;2024-02-14T00:36:10;9.05;;;4.70;;
51467;SDS011;37545;45.302;-122.946;2024-02-14T00:38:39;9.65;;;4.72;;
51467;SDS011;37545;45.302;-122.946;2024-02-14T00:41:08;9.48;;;5.93;;
51467;SDS011;37545;45.302;-122.946;2024-02-14T00:43:41;6.50;;;4.00;;
51467;SDS011;37545;45.302;-122.946;2024-02-14T00:46:15;6.53;;;3.67;;
51467;SDS011;37545;45.302;-122.946;2024-02-14T00:48:44;7.57;;;4.18;;
51467;SDS011;37545;45.302;-122.946;2024-02-14T00:51:16;6.50;;;4.13;;
51467;SDS011;37545;45.302;-122.946;2024-02-14T00:53:45;7.85;;;4.30;;
51467;SDS011;37545;45.302;-122.946;2024-02-14T00:56:14;7.97;;;4.78;;
51467;SDS011;37545;45.302;-122.946;2024-02-14T00:58:48;7.57;;;4.25;;
51467;SDS011;37545;45.302;-122.946;2024-02-14T01:01:20;9.45;;;4.30;;
51467;SDS011;37545;45.302;-122.946;2024-02-14T01:03:49;7.55;;;4.20;;
51467;SDS011;37545;45.302;-122.946;2024-02-14T01:06:18;6.60;;;4.05;;
51467;SDS011;37545;45.302;-122.946;2024-02-14T01:08:55;8.73;;;5.35;;
51467;SDS011;37545;45.302;-122.946;2024-02-14T01:11:24;10.70;;;5.82;;
51467;SDS011;37545;45.302;-122.946;2024-02-14T01:13:56;9.07;;;4.28;;
51467;SDS011;37545;45.302;-122.946;2024-02-14T01:16:25;9.18;;;4.60;;
51467;SDS011;37545;45.302;-122.946;2024-02-14T01:19:04;6.60;;;4.25;;
51467;SDS011;37545;45.302;-122.946;2024-02-14T01:21:33;10.05;;;4.57;;
51467;SDS011;37545;45.302;-122.946;2024-02-14T01:24:02;9.27;;;4.75;;
51467;SDS011;37545;45.302;-122.946;2024-02-14T01:30:10;6.93;;;4.15;;
51467;SDS011;37545;45.302;-122.946;2024-02-14T01:32:40;7.25;;;3.67;;
51467;SDS011;37545;45.302;-122.946;2024-02-14T01:35:09;9.07;;;4.72;;
51467;SDS011;37545;45.302;-122.946;2024-02-14T01:37:39;9.77;;;4.07;;
51467;SDS011;37545;45.302;-122.946;2024-02-14T01:40:21;7.60;;;3.70;;
51467;SDS011;37545;45.302;-122.946;2024-02-14T01:45:39;7.35;;;3.80;;
51467;SDS011;37545;45.302;-122.946;2024-02-14T01:48:09;9.50;;;4.45;;
51467;SDS011;37545;45.302;-122.946;2024-02-14T01:50:38;7.88;;;4.15;;
51467;SDS011;37545;45.302;-122.946;2024-02-14T01:53:17;7.15;;;3.58;;
51467;SDS011;37545;45.302;-122.946;2024-02-14T01:55:47;13.73;;;3.50;;
51467;SDS011;37545;45.302;-122.946;2024-02-14T01:58:16;6.70;;;3.38;;
51467;SDS011;37545;45.302;-122.946;2024-02-14T02:00:51;7.10;;;3.50;;
51467;SDS011;37545;45.302;-122.946;2024-02-14T02:03:22;7.40;;;3.78;;
51467;SDS011;37545;45.302;-122.946;2024-02-14T02:05:52;7.43;;;3.17;;
51467;SDS011;37545;45.302;-122.946;2024-02-14T02:08:21;7.82;;;3.50;;
51467;SDS011;37545;45.302;-122.946;2024-02-14T02:10:50;6.38;;;3.20;;
51467;SDS011;37545;45.302;-122.946;2024-02-14T02:13:22;6.85;;;3.58;;
51467;SDS011;37545;45.302;-122.946;2024-02-14T02:15:54;6.05;;;3.75;;
51467;SDS011;37545;45.302;-122.946;2024-02-14T02:18:23;6.93;;;3.50;;
51467;SDS011;37545;45.302;-122.946;2024-02-14T02:21:03;6.35;;;3.50;;
51467;SDS011;37545;45.302;-122.946;2024-02-14T02:23:35;8.57;;;4.03;;
51467;SDS011;37545;45.302;-122.946;2024-02-14T02:26:08;8.23;;;4.32;;
51467;SDS011;37545;45.302;-122.946;2024-02-14T02:28:41;6.82;;;4.00;;
51467;SDS011;37545;45.302;-122.946;2024-02-14T02:31:10;10.93;;;4.45;;
51467;SDS011;37545;45.302;-122.946;2024-02-14T02:33:39;6.90;;;4.05;;
51467;SDS011;37545;45.302;-122.946;2024-02-14T02:36:11;6.07;;;3.83;;
51467;SDS011;37545;45.302;-122.946;2024-02-14T02:38:44;7.07;;;4.00;;
51467;SDS011;37545;45.302;-122.946;2024-02-14T02:41:13;8.57;;;4.13;;
51467;SDS011;37545;45.302;-122.946;2024-02-14T02:52:19;8.13;;;3.47;;
51467;SDS011;37545;45.302;-122.946;2024-02-14T02:54:54;6.57;;;3.88;;
51467;SDS011;37545;45.302;-122.946;2024-02-14T02:57:37;8.13;;;3.58;;
51467;SDS011;37545;45.302;-122.946;2024-02-14T03:00:06;10.73;;;3.47;;
51467;SDS011;37545;45.302;-122.946;2024-02-14T03:02:38;8.60;;;3.53;;
51467;SDS011;37545;45.302;-122.946;2024-02-14T03:05:12;6.25;;;3.00;;
51467;SDS011;37545;45.302;-122.946;2024-02-14T03:07:44;8.55;;;3.50;;
51467;SDS011;37545;45.302;-122.946;2024-02-14T03:10:17;6.50;;;3.53;;
51467;SDS011;37545;45.302;-122.946;2024-02-14T03:12:46;5.22;;;3.53;;
51467;SDS011;37545;45.302;-122.946;2024-02-14T03:15:25;8.95;;;3.55;;
51467;SDS011;37545;45.302;-122.946;2024-02-14T03:17:54;5.85;;;3.28;;
51467;SDS011;37545;45.302;-122.946;2024-02-14T03:20:23;6.57;;;3.45;;
51467;SDS011;37545;45.302;-122.946;2024-02-14T03:22:54;6.95;;;3.83;;
51467;SDS011;37545;45.302;-122.946;2024-02-14T03:25:26;7.38;;;3.90;;
51467;SDS011;37545;45.302;-122.946;2024-02-14T03:27:55;9.05;;;3.35;;
51467;SDS011;37545;45.302;-122.946;2024-02-14T03:30:24;8.38;;;3.50;;
51467;SDS011;37545;45.302;-122.946;2024-02-14T03:32:55;4.78;;;3.20;;
51467;SDS011;37545;45.302;-122.946;2024-02-14T03:35:26;6.80;;;3.35;;
51467;SDS011;37545;45.302;-122.946;2024-02-14T03:37:55;6.70;;;4.05;;
51467;SDS011;37545;45.302;-122.946;2024-02-14T03:40:27;7.93;;;3.47;;
51467;SDS011;37545;45.302;-122.946;2024-02-14T03:43:08;10.70;;;3.92;;
51467;SDS011;37545;45.302;-122.946;2024-02-14T03:45:37;6.88;;;3.42;;
51467;SDS011;37545;45.302;-122.946;2024-02-14T03:48:06;6.65;;;2.97;;
51467;SDS011;37545;45.302;-122.946;2024-02-14T03:50:37;6.57;;;3.47;;
51467;SDS011;37545;45.302;-122.946;2024-02-14T03:53:08;9.57;;;5.30;;
51467;SDS011;37545;45.302;-122.946;2024-02-14T03:55:40;10.18;;;4.45;;
51467;SDS011;37545;45.302;-122.946;2024-02-14T03:58:09;6.65;;;3.55;;
51467;SDS011;37545;45.302;-122.946;2024-02-14T04:00:48;6.00;;;4.05;;
51467;SDS011;37545;45.302;-122.946;2024-02-14T04:03:18;13.32;;;5.68;;
51467;SDS011;37545;45.302;-122.946;2024-02-14T04:05:48;17.98;;;7.65;;
51467;SDS011;37545;45.302;-122.946;2024-02-14T04:08:16;18.33;;;8.98;;
51467;SDS011;37545;45.302;-122.946;2024-02-14T04:10:48;18.42;;;7.53;;
51467;SDS011;37545;45.302;-122.946;2024-02-14T04:13:19;8.82;;;4.95;;
51467;SDS011;37545;45.302;-122.946;2024-02-14T04:15:48;7.18;;;4.05;;
51467;SDS011;37545;45.302;-122.946;2024-02-14T04:18:16;8.75;;;3.50;;
51467;SDS011;37545;45.302;-122.946;2024-02-14T04:20:48;8.93;;;5.25;;
51467;SDS011;37545;45.302;-122.946;2024-02-14T04:23:17;16.20;;;8.73;;
51467;SDS011;37545;45.302;-122.946;2024-02-14T04:25:50;18.10;;;6.88;;
51467;SDS011;37545;45.302;-122.946;2024-02-14T04:28:21;10.05;;;6.20;;
51467;SDS011;37545;45.302;-122.946;2024-02-14T04:30:53;11.30;;;5.20;;
51467;SDS011;37545;45.302;-122.946;2024-02-14T04:33:22;10.13;;;4.60;;
51467;SDS011;37545;45.302;-122.946;2024-02-14T04:35:51;10.00;;;4.85;;
51467;SDS011;37545;45.302;-122.946;2024-02-14T04:38:21;10.43;;;5.65;;
51467;SDS011;37545;45.302;-122.946;2024-02-14T04:40:54;13.88;;;5.18;;
51467;SDS011;37545;45.302;-122.946;2024-02-14T04:43:25;11.95;;;6.47;;
51467;SDS011;37545;45.302;-122.946;2024-02-14T04:45:54;7.50;;;4.60;;
51467;SDS011;37545;45.302;-122.946;2024-02-14T04:48:22;16.17;;;6.65;;
51467;SDS011;37545;45.302;-122.946;2024-02-14T04:50:54;9.20;;;5.20;;
51467;SDS011;37545;45.302;-122.946;2024-02-14T04:53:23;11.30;;;4.20;;
51467;SDS011;37545;45.302;-122.946;2024-02-14T04:55:54;12.95;;;5.57;;
51467;SDS011;37545;45.302;-122.946;2024-02-14T04:58:23;12.25;;;5.65;;
51467;SDS011;37545;45.302;-122.946;2024-02-14T05:00:53;15.80;;;6.00;;
51467;SDS011;37545;45.302;-122.946;2024-02-14T05:03:25;12.00;;;5.45;;
51467;SDS011;37545;45.302;-122.946;2024-02-14T05:05:54;9.93;;;4.28;;
51467;SDS011;37545;45.302;-122.946;2024-02-14T05:08:23;10.48;;;4.72;;
51467;SDS011;37545;45.302;-122.946;2024-02-14T05:10:57;11.15;;;5.38;;
51467;SDS011;37545;45.302;-122.946;2024-02-14T05:13:28;14.68;;;6.38;;
51467;SDS011;37545;45.302;-122.946;2024-02-14T05:15:58;13.82;;;6.90;;
51467;SDS011;37545;45.302;-122.946;2024-02-14T05:18:29;16.63;;;8.30;;
51467;SDS011;37545;45.302;-122.946;2024-02-14T05:21:08;14.05;;;6.85;;
51467;SDS011;37545;45.302;-122.946;2024-02-14T05:23:37;13.38;;;6.43;;
51467;SDS011;37545;45.302;-122.946;2024-02-14T05:26:08;21.88;;;7.63;;
51467;SDS011;37545;45.302;-122.946;2024-02-14T05:28:40;19.63;;;7.87;;
51467;SDS011;37545;45.302;-122.946;2024-02-14T05:31:09;16.65;;;7.32;;
51467;SDS011;37545;45.302;-122.946;2024-02-14T05:33:38;13.90;;;6.68;;
51467;SDS011;37545;45.302;-122.946;2024-02-14T05:36:06;14.07;;;7.20;;
51467;SDS011;37545;45.302;-122.946;2024-02-14T05:38:38;14.73;;;6.32;;
51467;SDS011;37545;45.302;-122.946;2024-02-14T05:41:12;12.23;;;6.28;;
51467;SDS011;37545;45.302;-122.946;2024-02-14T05:43:43;14.45;;;5.82;;
51467;SDS011;37545;45.302;-122.946;2024-02-14T05:46:12;13.98;;;5.75;;
51467;SDS011;37545;45.302;-122.946;2024-02-14T05:48:41;9.93;;;5.28;;
51467;SDS011;37545;45.302;-122.946;2024-02-14T05:51:11;9.10;;;5.13;;
51467;SDS011;37545;45.302;-122.946;2024-02-14T05:53:42;9.98;;;4.80;;
51467;SDS011;37545;45.302;-122.946;2024-02-14T05:56:13;9.13;;;4.55;;
51467;SDS011;37545;45.302;-122.946;2024-02-14T05:58:46;10.13;;;4.80;;
51467;SDS011;37545;45.302;-122.946;2024-02-14T06:01:17;8.65;;;4.70;;
51467;SDS011;37545;45.302;-122.946;2024-02-14T06:03:46;11.75;;;5.05;;
51467;SDS011;37545;45.302;-122.946;2024-02-14T06:06:14;9.73;;;5.00;;
51467;SDS011;37545;45.302;-122.946;2024-02-14T06:08:43;12.68;;;4.78;;
51467;SDS011;37545;45.302;-122.946;2024-02-14T06:11:17;12.02;;;4.75;;
51467;SDS011;37545;45.302;-122.946;2024-02-14T06:13:46;10.88;;;4.47;;
51467;SDS011;37545;45.302;-122.946;2024-02-14T06:16:15;10.90;;;5.55;;
51467;SDS011;37545;45.302;-122.946;2024-02-14T06:18:45;10.93;;;4.80;;
51467;SDS011;37545;45.302;-122.946;2024-02-14T06:21:16;10.20;;;3.83;;
51467;SDS011;37545;45.302;-122.946;2024-02-14T06:23:45;11.05;;;4.72;;
51467;SDS011;37545;45.302;-122.946;2024-02-14T06:26:14;8.65;;;4.53;;
51467;SDS011;37545;45.302;-122.946;2024-02-14T06:28:45;7.47;;;4.32;;
51467;SDS011;37545;45.302;-122.946;2024-02-14T06:31:20;10.57;;;3.97;;
51467;SDS011;37545;45.302;-122.946;2024-02-14T06:33:49;7.50;;;4.47;;
51467;SDS011;37545;45.302;-122.946;2024-02-14T06:36:18;8.75;;;4.47;;
51467;SDS011;37545;45.302;-122.946;2024-02-14T06:38:47;8.50;;;4.10;;
51467;SDS011;37545;45.302;-122.946;2024-02-14T06:41:16;9.18;;;5.18;;
51467;SDS011;37545;45.302;-122.946;2024-02-14T06:43:49;7.25;;;3.90;;
51467;SDS011;37545;45.302;-122.946;2024-02-14T06:46:18;8.00;;;3.80;;
51467;SDS011;37545;45.302;-122.946;2024-02-14T06:48:46;8.25;;;4.85;;
51467;SDS011;37545;45.302;-122.946;2024-02-14T06:51:17;9.27;;;4.10;;
51467;SDS011;37545;45.302;-122.946;2024-02-14T06:53:46;8.35;;;4.28;;
51467;SDS011;37545;45.302;-122.946;2024-02-14T06:56:14;9.38;;;4.50;;
51467;SDS011;37545;45.302;-122.946;2024-02-14T06:58:43;9.90;;;4.97;;
51467;SDS011;37545;45.302;-122.946;2024-02-14T07:01:17;8.45;;;4.22;;
51467;SDS011;37545;45.302;-122.946;2024-02-14T07:03:48;9.88;;;5.07;;
51467;SDS011;37545;45.302;-122.946;2024-02-14T07:06:17;9.40;;;4.93;;
51467;SDS011;37545;45.302;-122.946;2024-02-14T07:08:46;9.20;;;3.75;;
51467;SDS011;37545;45.302;-122.946;2024-02-14T07:11:15;12.00;;;5.03;;
51467;SDS011;37545;45.302;-122.946;2024-02-14T07:13:47;8.90;;;5.10;;
51467;SDS011;37545;45.302;-122.946;2024-02-14T07:16:17;9.05;;;4.63;;
51467;SDS011;37545;45.302;-122.946;2024-02-14T07:18:46;10.52;;;5.03;;
51467;SDS011;37545;45.302;-122.946;2024-02-14T07:21:15;10.68;;;5.38;;
51467;SDS011;37545;45.302;-122.946;2024-02-14T07:23:43;11.40;;;5.40;;
51467;SDS011;37545;45.302;-122.946;2024-02-14T07:26:13;11.48;;;5.72;;
51467;SDS011;37545;45.302;-122.946;2024-02-14T07:28:42;9.23;;;4.68;;
51467;SDS011;37545;45.302;-122.946;2024-02-14T07:31:10;12.38;;;5.65;;
51467;SDS011;37545;45.302;-122.946;2024-02-14T07:33:41;12.73;;;5.53;;
51467;SDS011;37545;45.302;-122.946;2024-02-14T07:36:10;11.23;;;6.03;;
51467;SDS011;37545;45.302;-122.946;2024-02-14T07:38:39;8.85;;;5.10;;
51467;SDS011;37545;45.302;-122.946;2024-02-14T07:41:08;12.35;;;6.22;;
51467;SDS011;37545;45.302;-122.946;2024-02-14T07:43:37;10.90;;;5.65;;
51467;SDS011;37545;45.302;-122.946;2024-02-14T07:46:06;12.85;;;7.10;;
51467;SDS011;37545;45.302;-122.946;2024-02-14T07:48:37;11.70;;;5.47;;
51467;SDS011;37545;45.302;-122.946;2024-02-14T07:51:08;11.65;;;6.13;;
51467;SDS011;37545;45.302;-122.946;2024-02-14T07:53:37;13.65;;;6.57;;
51467;SDS011;37545;45.302;-122.946;2024-02-14T07:56:06;15.68;;;6.35;;
51467;SDS011;37545;45.302;-122.946;2024-02-14T07:58:35;12.88;;;5.60;;
51467;SDS011;37545;45.302;-122.946;2024-02-14T08:01:03;15.75;;;6.53;;
51467;SDS011;37545;45.302;-122.946;2024-02-14T08:03:32;14.15;;;6.53;;
51467;SDS011;37545;45.302;-122.946;2024-02-14T08:06:01;15.13;;;6.45;;
51467;SDS011;37545;45.302;-122.946;2024-02-14T08:08:31;15.18;;;7.25;;
51467;SDS011;37545;45.302;-122.946;2024-02-14T08:11:02;12.25;;;6.88;;
51467;SDS011;37545;45.302;-122.946;2024-02-14T08:13:31;13.55;;;5.95;;
51467;SDS011;37545;45.302;-122.946;2024-02-14T08:16:00;14.52;;;6.35;;
51467;SDS011;37545;45.302;-122.946;2024-02-14T08:18:29;15.20;;;7.13;;
51467;SDS011;37545;45.302;-122.946;2024-02-14T08:20:57;17.10;;;6.85;;
51467;SDS011;37545;45.302;-122.946;2024-02-14T08:23:34;15.70;;;6.90;;
51467;SDS011;37545;45.302;-122.946;2024-02-14T08:26:04;13.23;;;6.22;;
51467;SDS011;37545;45.302;-122.946;2024-02-14T08:28:36;14.63;;;6.75;;
51467;SDS011;37545;45.302;-122.946;2024-02-14T08:31:09;19.70;;;7.03;;
51467;SDS011;37545;45.302;-122.946;2024-02-14T08:33:38;14.35;;;6.30;;
51467;SDS011;37545;45.302;-122.946;2024-02-14T08:36:07;12.73;;;6.47;;
51467;SDS011;37545;45.302;-122.946;2024-02-14T08:38:37;17.27;;;6.78;;
51467;SDS011;37545;45.302;-122.946;2024-02-14T08:41:08;12.85;;;6.40;;
51467;SDS011;37545;45.302;-122.946;2024-02-14T08:43:36;15.02;;;6.57;;
51467;SDS011;37545;45.302;-122.946;2024-02-14T08:46:09;15.85;;;6.75;;
51467;SDS011;37545;45.302;-122.946;2024-02-14T08:48:38;12.95;;;6.72;;
51467;SDS011;37545;45.302;-122.946;2024-02-14T08:51:11;17.48;;;6.90;;
51467;SDS011;37545;45.302;-122.946;2024-02-14T08:53:42;12.32;;;5.78;;
51467;SDS011;37545;45.302;-122.946;2024-02-14T08:56:10;12.57;;;5.93;;
51467;SDS011;37545;45.302;-122.946;2024-02-14T08:58:39;11.98;;;5.95;;
51467;SDS011;37545;45.302;-122.946;2024-02-14T09:01:09;14.50;;;6.78;;
51467;SDS011;37545;45.302;-122.946;2024-02-14T09:03:38;10.20;;;5.70;;
51467;SDS011;37545;45.302;-122.946;2024-02-14T09:06:09;12.10;;;6.35;;
51467;SDS011;37545;45.302;-122.946;2024-02-14T09:08:37;13.73;;;6.25;;
51467;SDS011;37545;45.302;-122.946;2024-02-14T09:11:07;12.13;;;5.82;;
51467;SDS011;37545;45.302;-122.946;2024-02-14T09:13:39;10.85;;;5.15;;
51467;SDS011;37545;45.302;-122.946;2024-02-14T09:16:08;13.63;;;5.53;;
51467;SDS011;37545;45.302;-122.946;2024-02-14T09:18:37;12.20;;;5.68;;
51467;SDS011;37545;45.302;-122.946;2024-02-14T09:21:06;15.48;;;6.07;;
51467;SDS011;37545;45.302;-122.946;2024-02-14T09:23:37;10.68;;;5.95;;
51467;SDS011;37545;45.302;-122.946;2024-02-14T09:26:09;16.25;;;6.57;;
51467;SDS011;37545;45.302;-122.946;2024-02-14T09:28:40;11.50;;;5.25;;
51467;SDS011;37545;45.302;-122.946;2024-02-14T09:31:08;13.63;;;6.18;;
51467;SDS011;37545;45.302;-122.946;2024-02-14T09:33:38;16.33;;;6.03;;
51467;SDS011;37545;45.302;-122.946;2024-02-14T09:36:07;12.38;;;6.10;;
51467;SDS011;37545;45.302;-122.946;2024-02-14T09:38:36;12.13;;;5.57;;
51467;SDS011;37545;45.302;-122.946;2024-02-14T09:41:05;14.25;;;5.85;;
51467;SDS011;37545;45.302;-122.946;2024-02-14T09:43:43;12.05;;;4.95;;
51467;SDS011;37545;45.302;-122.946;2024-02-14T09:46:13;13.73;;;5.47;;
51467;SDS011;37545;45.302;-122.946;2024-02-14T09:48:43;12.35;;;5.50;;
51467;SDS011;37545;45.302;-122.946;2024-02-14T09:51:13;12.50;;;5.68;;
51467;SDS011;37545;45.302;-122.946;2024-02-14T09:53:42;13.45;;;6.22;;
51467;SDS011;37545;45.302;-122.946;2024-02-14T09:56:13;11.85;;;5.18;;
51467;SDS011;37545;45.302;-122.946;2024-02-14T09:58:44;13.80;;;6.28;;
51467;SDS011;37545;45.302;-122.946;2024-02-14T10:01:21;12.75;;;5.75;;
51467;SDS011;37545;45.302;-122.946;2024-02-14T10:03:50;13.25;;;5.32;;
51467;SDS011;37545;45.302;-122.946;2024-02-14T10:06:18;13.07;;;5.65;;
51467;SDS011;37545;45.302;-122.946;2024-02-14T10:08:48;14.45;;;5.18;;
51467;SDS011;37545;45.302;-122.946;2024-02-14T10:11:19;11.90;;;5.82;;
51467;SDS011;37545;45.302;-122.946;2024-02-14T10:13:51;11.88;;;5.63;;
51467;SDS011;37545;45.302;-122.946;2024-02-14T10:16:26;12.93;;;6.03;;
51467;SDS011;37545;45.302;-122.946;2024-02-14T10:18:54;11.50;;;5.10;;
51467;SDS011;37545;45.302;-122.946;2024-02-14T10:21:23;12.32;;;5.90;;
51467;SDS011;37545;45.302;-122.946;2024-02-14T10:23:53;10.68;;;5.60;;
51467;SDS011;37545;45.302;-122.946;2024-02-14T10:26:26;17.83;;;6.68;;
51467;SDS011;37545;45.302;-122.946;2024-02-14T10:28:56;10.27;;;5.32;;
51467;SDS011;37545;45.302;-122.946;2024-02-14T10:31:25;15.45;;;6.15;;
51467;SDS011;37545;45.302;-122.946;2024-02-14T10:33:57;13.02;;;5.30;;
51467;SDS011;37545;45.302;-122.946;2024-02-14T10:36:28;11.48;;;5.05;;
51467;SDS011;37545;45.302;-122.946;2024-02-14T10:38:57;14.27;;;6.25;;
51467;SDS011;37545;45.302;-122.946;2024-02-14T10:41:27;12.48;;;5.78;;
51467;SDS011;37545;45.302;-122.946;2024-02-14T10:44:01;13.80;;;5.28;;
51467;SDS011;37545;45.302;-122.946;2024-02-14T10:46:31;10.70;;;5.43;;
51467;SDS011;37545;45.302;-122.946;2024-02-14T10:49:02;14.80;;;5.70;;
51467;SDS011;37545;45.302;-122.946;2024-02-14T10:51:35;12.23;;;5.55;;
51467;SDS011;37545;45.302;-122.946;2024-02-14T10:54:09;11.60;;;5.60;;
51467;SDS011;37545;45.302;-122.946;2024-02-14T10:56:41;13.30;;;5.63;;
51467;SDS011;37545;45.302;-122.946;2024-02-14T10:59:13;11.23;;;4.65;;
51467;SDS011;37545;45.302;-122.946;2024-02-14T11:01:45;14.45;;;5.45;;
51467;SDS011;37545;45.302;-122.946;2024-02-14T11:04:15;11.70;;;5.53;;
51467;SDS011;37545;45.302;-122.946;2024-02-14T11:06:45;8.80;;;4.40;;
51467;SDS011;37545;45.302;-122.946;2024-02-14T11:09:14;9.68;;;5.60;;
51467;SDS011;37545;45.302;-122.946;2024-02-14T11:11:45;8.10;;;4.70;;
51467;SDS011;37545;45.302;-122.946;2024-02-14T11:14:15;11.23;;;5.30;;
51467;SDS011;37545;45.302;-122.946;2024-02-14T11:16:45;11.30;;;4.80;;
51467;SDS011;37545;45.302;-122.946;2024-02-14T11:19:14;9.68;;;4.97;;
51467;SDS011;37545;45.302;-122.946;2024-02-14T11:21:47;10.63;;;5.13;;
51467;SDS011;37545;45.302;-122.946;2024-02-14T11:24:17;10.18;;;5.00;;
51467;SDS011;37545;45.302;-122.946;2024-02-14T11:26:50;10.48;;;5.15;;
51467;SDS011;37545;45.302;-122.946;2024-02-14T11:29:19;12.02;;;5.00;;
51467;SDS011;37545;45.302;-122.946;2024-02-14T11:31:56;10.73;;;4.80;;
51467;SDS011;37545;45.302;-122.946;2024-02-14T11:34:26;9.90;;;4.68;;
51467;SDS011;37545;45.302;-122.946;2024-02-14T11:36:57;10.40;;;5.22;;
51467;SDS011;37545;45.302;-122.946;2024-02-14T11:39:32;10.23;;;4.75;;
51467;SDS011;37545;45.302;-122.946;2024-02-14T11:42:04;11.15;;;4.97;;
51467;SDS011;37545;45.302;-122.946;2024-02-14T11:44:34;8.77;;;4.22;;
51467;SDS011;37545;45.302;-122.946;2024-02-14T11:47:03;6.13;;;3.53;;
51467;SDS011;37545;45.302;-122.946;2024-02-14T11:49:32;9.98;;;4.68;;
51467;SDS011;37545;45.302;-122.946;2024-02-14T11:52:02;12.18;;;4.80;;
51467;SDS011;37545;45.302;-122.946;2024-02-14T11:54:31;8.27;;;4.40;;
51467;SDS011;37545;45.302;-122.946;2024-02-14T11:57:00;10.15;;;4.93;;
51467;SDS011;37545;45.302;-122.946;2024-02-14T11:59:30;8.35;;;4.40;;
51467;SDS011;37545;45.302;-122.946;2024-02-14T12:01:59;7.28;;;4.22;;
51467;SDS011;37545;45.302;-122.946;2024-02-14T12:04:28;6.93;;;3.90;;
51467;SDS011;37545;45.302;-122.946;2024-02-14T12:06:57;8.88;;;4.13;;
51467;SDS011;37545;45.302;-122.946;2024-02-14T12:09:26;8.68;;;3.80;;
51467;SDS011;37545;45.302;-122.946;2024-02-14T12:11:56;9.52;;;4.78;;
51467;SDS011;37545;45.302;-122.946;2024-02-14T12:14:26;22.70;;;5.22;;
51467;SDS011;37545;45.302;-122.946;2024-02-14T12:16:59;9.82;;;4.25;;
51467;SDS011;37545;45.302;-122.946;2024-02-14T12:19:28;8.43;;;3.47;;
51467;SDS011;37545;45.302;-122.946;2024-02-14T12:21:58;7.82;;;4.50;;
51467;SDS011;37545;45.302;-122.946;2024-02-14T12:24:28;7.20;;;4.07;;
51467;SDS011;37545;45.302;-122.946;2024-02-14T12:26:57;8.55;;;3.65;;
51467;SDS011;37545;45.302;-122.946;2024-02-14T12:29:26;7.00;;;3.75;;
51467;SDS011;37545;45.302;-122.946;2024-02-14T12:32:06;4.90;;;2.90;;
51467;SDS011;37545;45.302;-122.946;2024-02-14T12:34:35;6.28;;;3.38;;
51467;SDS011;37545;45.302;-122.946;2024-02-14T12:37:06;5.38;;;3.08;;
51467;SDS011;37545;45.302;-122.946;2024-02-14T12:39:35;7.47;;;3.88;;
51467;SDS011;37545;45.302;-122.946;2024-02-14T12:42:04;5.65;;;3.22;;
51467;SDS011;37545;45.302;-122.946;2024-02-14T12:44:33;5.93;;;3.17;;
51467;SDS011;37545;45.302;-122.946;2024-02-14T12:47:02;6.07;;;3.05;;
51467;SDS011;37545;45.302;-122.946;2024-02-14T12:49:32;6.03;;;3.38;;
51467;SDS011;37545;45.302;-122.946;2024-02-14T12:52:01;7.93;;;3.47;;
51467;SDS011;37545;45.302;-122.946;2024-02-14T12:54:30;5.82;;;3.50;;
51467;SDS011;37545;45.302;-122.946;2024-02-14T12:56:59;6.13;;;3.08;;
51467;SDS011;37545;45.302;-122.946;2024-02-14T12:59:28;5.50;;;2.78;;
51467;SDS011;37545;45.302;-122.946;2024-02-14T13:01:57;9.32;;;3.55;;
51467;SDS011;37545;45.302;-122.946;2024-02-14T13:04:25;6.20;;;3.58;;
51467;SDS011;37545;45.302;-122.946;2024-02-14T13:06:58;9.20;;;3.88;;
51467;SDS011;37545;45.302;-122.946;2024-02-14T13:09:27;9.35;;;3.65;;
51467;SDS011;37545;45.302;-122.946;2024-02-14T13:11:56;8.00;;;3.30;;
51467;SDS011;37545;45.302;-122.946;2024-02-14T13:14:25;8.23;;;3.97;;
51467;SDS011;37545;45.302;-122.946;2024-02-14T13:16:54;7.28;;;3.90;;
51467;SDS011;37545;45.302;-122.946;2024-02-14T13:19:22;8.00;;;3.38;;
51467;SDS011;37545;45.302;-122.946;2024-02-14T13:21:51;6.50;;;3.55;;
51467;SDS011;37545;45.302;-122.946;2024-02-14T13:24:22;9.45;;;4.28;;
51467;SDS011;37545;45.302;-122.946;2024-02-14T13:26:50;12.05;;;4.70;;
51467;SDS011;37545;45.302;-122.946;2024-02-14T13:29:19;7.93;;;3.38;;
51467;SDS011;37545;45.302;-122.946;2024-02-14T13:31:48;3.17;;;2.72;;
51467;SDS011;37545;45.302;-122.946;2024-02-14T13:34:18;6.45;;;3.67;;
51467;SDS011;37545;45.302;-122.946;2024-02-14T13:36:47;8.73;;;3.47;;
51467;SDS011;37545;45.302;-122.946;2024-02-14T13:39:16;6.70;;;3.10;;
51467;SDS011;37545;45.302;-122.946;2024-02-14T13:41:49;10.05;;;3.83;;
51467;SDS011;37545;45.302;-122.946;2024-02-14T13:44:18;8.23;;;3.78;;
51467;SDS011;37545;45.302;-122.946;2024-02-14T13:46:46;8.02;;;3.70;;
51467;SDS011;37545;45.302;-122.946;2024-02-14T13:49:16;7.60;;;3.13;;
51467;SDS011;37545;45.302;-122.946;2024-02-14T13:51:47;9.65;;;4.63;;
51467;SDS011;37545;45.302;-122.946;2024-02-14T13:54:17;6.40;;;3.95;;
51467;SDS011;37545;45.302;-122.946;2024-02-14T13:56:45;8.13;;;3.97;;
51467;SDS011;37545;45.302;-122.946;2024-02-14T13:59:16;8.35;;;4.10;;
51467;SDS011;37545;45.302;-122.946;2024-02-14T14:01:49;8.88;;;4.20;;
51467;SDS011;37545;45.302;-122.946;2024-02-14T14:04:18;6.70;;;3.63;;
51467;SDS011;37545;45.302;-122.946;2024-02-14T14:06:48;7.63;;;3.83;;
51467;SDS011;37545;45.302;-122.946;2024-02-14T14:09:16;7.57;;;3.83;;
51467;SDS011;37545;45.302;-122.946;2024-02-14T14:11:45;7.25;;;3.38;;
51467;SDS011;37545;45.302;-122.946;2024-02-14T14:14:17;8.77;;;4.13;;
51467;SDS011;37545;45.302;-122.946;2024-02-14T14:16:46;7.93;;;3.58;;
51467;SDS011;37545;45.302;-122.946;2024-02-14T14:19:14;10.20;;;4.40;;
51467;SDS011;37545;45.302;-122.946;2024-02-14T14:21:43;11.07;;;3.97;;
51467;SDS011;37545;45.302;-122.946;2024-02-14T14:24:11;9.85;;;4.13;;
51467;SDS011;37545;45.302;-122.946;2024-02-14T14:26:40;8.10;;;4.22;;
51467;SDS011;37545;45.302;-122.946;2024-02-14T14:29:09;10.45;;;4.78;;
51467;SDS011;37545;45.302;-122.946;2024-02-14T14:31:39;8.32;;;4.55;;
51467;SDS011;37545;45.302;-122.946;2024-02-14T14:34:08;8.50;;;4.05;;
51467;SDS011;37545;45.302;-122.946;2024-02-14T14:36:37;10.23;;;4.75;;